sensor_id;sensor_type;location;lat;lon;timestamp;pressure;altitude;pressure_sealevel;temperature
29701;BMP280;57917;51.380;-0.176;2023-04-30T00:05:25;101969.09;;;11.67
29701;BMP280;57917;51.380;-0.176;2023-04-30T00:11:15;101970.38;;;11.65
29701;BMP280;57917;51.380;-0.176;2023-04-30T00:17:02;101965.34;;;11.63
29701;BMP280;57917;51.380;-0.176;2023-04-30T00:22:50;101956.00;;;11.56
29701;BMP280;57917;51.380;-0.176;2023-04-30T00:28:43;101957.06;;;11.33
29701;BMP280;57917;51.380;-0.176;2023-04-30T00:34:30;101951.25;;;11.36
29701;BMP280;57917;51.380;-0.176;2023-04-30T00:40:17;101946.75;;;11.37
29701;BMP280;57917;51.380;-0.176;2023-04-30T00:46:06;101951.03;;;11.16
29701;BMP280;57917;51.380;-0.176;2023-04-30T00:51:55;101950.09;;;11.27
29701;BMP280;57917;51.380;-0.176;2023-04-30T00:57:43;101936.53;;;11.02
29701;BMP280;57917;51.380;-0.176;2023-04-30T01:03:31;101947.38;;;11.00
29701;BMP280;57917;51.380;-0.176;2023-04-30T01:09:19;101950.25;;;10.99
29701;BMP280;57917;51.380;-0.176;2023-04-30T01:15:34;101936.91;;;10.89
29701;BMP280;57917;51.380;-0.176;2023-04-30T01:21:39;101935.88;;;10.73
29701;BMP280;57917;51.380;-0.176;2023-04-30T01:33:44;101940.16;;;10.58
29701;BMP280;57917;51.380;-0.176;2023-04-30T01:46:11;101929.13;;;10.66
29701;BMP280;57917;51.380;-0.176;2023-04-30T01:52:22;101920.34;;;10.44
29701;BMP280;57917;51.380;-0.176;2023-04-30T01:58:14;101918.09;;;10.19
29701;BMP280;57917;51.380;-0.176;2023-04-30T02:04:01;101918.09;;;10.19
29701;BMP280;57917;51.380;-0.176;2023-04-30T02:09:50;101920.97;;;10.18
29701;BMP280;57917;51.380;-0.176;2023-04-30T02:15:41;101925.44;;;10.00
29701;BMP280;57917;51.380;-0.176;2023-04-30T02:21:30;101936.03;;;10.17
29701;BMP280;57917;51.380;-0.176;2023-04-30T02:27:18;101921.13;;;10.11
29701;BMP280;57917;51.380;-0.176;2023-04-30T02:33:06;101928.38;;;9.99
29701;BMP280;57917;51.380;-0.176;2023-04-30T02:39:01;101925.28;;;9.90
29701;BMP280;57917;51.380;-0.176;2023-04-30T02:44:50;101924.16;;;9.86
29701;BMP280;57917;51.380;-0.176;2023-04-30T02:50:49;101929.16;;;10.00
29701;BMP280;57917;51.380;-0.176;2023-04-30T02:56:37;101920.50;;;9.87
29701;BMP280;57917;51.380;-0.176;2023-04-30T03:02:30;101910.84;;;9.81
29701;BMP280;57917;51.380;-0.176;2023-04-30T03:08:19;101926.06;;;9.74
29701;BMP280;57917;51.380;-0.176;2023-04-30T03:20:16;101912.78;;;9.58
29701;BMP280;57917;51.380;-0.176;2023-04-30T03:26:07;101915.94;;;9.71
29701;BMP280;57917;51.380;-0.176;2023-04-30T03:31:54;101909.94;;;9.76
29701;BMP280;57917;51.380;-0.176;2023-04-30T03:37:42;101910.84;;;9.81
29701;BMP280;57917;51.380;-0.176;2023-04-30T03:43:36;101898.13;;;9.67
29701;BMP280;57917;51.380;-0.176;2023-04-30T03:49:30;101897.00;;;9.63
29701;BMP280;57917;51.380;-0.176;2023-04-30T03:55:18;101889.03;;;9.46
29701;BMP280;57917;51.380;-0.176;2023-04-30T04:01:05;101901.53;;;9.23
29701;BMP280;57917;51.380;-0.176;2023-04-30T04:06:59;101908.53;;;9.29
29701;BMP280;57917;51.380;-0.176;2023-04-30T04:12:49;101900.66;;;9.45
29701;BMP280;57917;51.380;-0.176;2023-04-30T04:18:39;101898.72;;;9.41
29701;BMP280;57917;51.380;-0.176;2023-04-30T04:24:26;101900.00;;;9.38
29701;BMP280;57917;51.380;-0.176;2023-04-30T04:30:14;101906.53;;;9.36
29701;BMP280;57917;51.380;-0.176;2023-04-30T04:36:04;101899.72;;;9.40
29701;BMP280;57917;51.380;-0.176;2023-04-30T04:41:51;101894.72;;;9.38
29701;BMP280;57917;51.380;-0.176;2023-04-30T04:47:41;101905.59;;;9.42
29701;BMP280;57917;51.380;-0.176;2023-04-30T04:53:28;101910.22;;;9.35
29701;BMP280;57917;51.380;-0.176;2023-04-30T04:59:16;101906.72;;;9.29
29701;BMP280;57917;51.380;-0.176;2023-04-30T05:05:05;101910.47;;;9.22
29701;BMP280;57917;51.380;-0.176;2023-04-30T05:10:52;101905.75;;;9.35
29701;BMP280;57917;51.380;-0.176;2023-04-30T05:16:44;101909.63;;;9.44
29701;BMP280;57917;51.380;-0.176;2023-04-30T05:22:32;101906.38;;;9.82
29701;BMP280;57917;51.380;-0.176;2023-04-30T05:28:22;101901.38;;;10.68
29701;BMP280;57917;51.380;-0.176;2023-04-30T05:34:09;101892.59;;;11.06
29701;BMP280;57917;51.380;-0.176;2023-04-30T05:39:58;101889.09;;;11.49
29701;BMP280;57917;51.380;-0.176;2023-04-30T05:45:48;101887.16;;;12.02
29701;BMP280;57917;51.380;-0.176;2023-04-30T05:51:48;101881.28;;;12.89
29701;BMP280;57917;51.380;-0.176;2023-04-30T05:57:39;101881.00;;;12.90
29701;BMP280;57917;51.380;-0.176;2023-04-30T06:03:40;101889.38;;;13.54
29701;BMP280;57917;51.380;-0.176;2023-04-30T06:09:28;101880.63;;;13.83
29701;BMP280;57917;51.380;-0.176;2023-04-30T06:15:17;101873.69;;;14.07
29701;BMP280;57917;51.380;-0.176;2023-04-30T06:21:04;101868.00;;;14.34
29701;BMP280;57917;51.380;-0.176;2023-04-30T06:26:53;101876.25;;;14.91
29701;BMP280;57917;51.380;-0.176;2023-04-30T06:32:41;101881.25;;;14.59
29701;BMP280;57917;51.380;-0.176;2023-04-30T06:38:36;101882.13;;;14.29
29701;BMP280;57917;51.380;-0.176;2023-04-30T06:44:30;101884.53;;;14.26
29701;BMP280;57917;51.380;-0.176;2023-04-30T06:50:17;101881.06;;;14.35
29701;BMP280;57917;51.380;-0.176;2023-04-30T06:56:05;101897.19;;;14.64
29701;BMP280;57917;51.380;-0.176;2023-04-30T07:01:53;101902.69;;;15.31
29701;BMP280;57917;51.380;-0.176;2023-04-30T07:07:41;101897.00;;;15.76
29701;BMP280;57917;51.380;-0.176;2023-04-30T07:13:34;101897.38;;;16.41
29701;BMP280;57917;51.380;-0.176;2023-04-30T07:19:23;101895.94;;;16.29
29701;BMP280;57917;51.380;-0.176;2023-04-30T07:25:14;101885.69;;;16.55
29701;BMP280;57917;51.380;-0.176;2023-04-30T07:31:04;101885.19;;;17.27
29701;BMP280;57917;51.380;-0.176;2023-04-30T07:36:55;101884.97;;;17.56
29701;BMP280;57917;51.380;-0.176;2023-04-30T07:42:42;101879.47;;;17.34
29701;BMP280;57917;51.380;-0.176;2023-04-30T07:48:30;101892.47;;;17.86
29701;BMP280;57917;51.380;-0.176;2023-04-30T07:54:17;101886.06;;;18.36
29701;BMP280;57917;51.380;-0.176;2023-04-30T08:00:08;101880.47;;;18.73
29701;BMP280;57917;51.380;-0.176;2023-04-30T08:05:58;101878.22;;;18.89
29701;BMP280;57917;51.380;-0.176;2023-04-30T08:12:00;101877.72;;;18.87
29701;BMP280;57917;51.380;-0.176;2023-04-30T08:17:58;101887.88;;;18.40
29701;BMP280;57917;51.380;-0.176;2023-04-30T08:23:46;101877.41;;;18.88
29701;BMP280;57917;51.380;-0.176;2023-04-30T08:29:33;101880.28;;;19.44
29701;BMP280;57917;51.380;-0.176;2023-04-30T08:35:21;101870.13;;;19.63
29701;BMP280;57917;51.380;-0.176;2023-04-30T08:41:19;101881.53;;;20.16
29701;BMP280;57917;51.380;-0.176;2023-04-30T08:47:51;101875.00;;;20.00
29701;BMP280;57917;51.380;-0.176;2023-04-30T08:53:53;101874.25;;;20.34
29701;BMP280;57917;51.380;-0.176;2023-04-30T08:59:44;101862.06;;;20.79
29701;BMP280;57917;51.380;-0.176;2023-04-30T09:05:31;101870.63;;;20.72
29701;BMP280;57917;51.380;-0.176;2023-04-30T09:11:30;101858.84;;;21.19
29701;BMP280;57917;51.380;-0.176;2023-04-30T09:17:22;101863.09;;;21.20
29701;BMP280;57917;51.380;-0.176;2023-04-30T09:23:10;101842.66;;;21.28
29701;BMP280;57917;51.380;-0.176;2023-04-30T09:28:58;101839.50;;;21.17
29701;BMP280;57917;51.380;-0.176;2023-04-30T09:34:49;101854.31;;;20.86
29701;BMP280;57917;51.380;-0.176;2023-04-30T09:41:21;101826.78;;;20.80
29701;BMP280;57917;51.380;-0.176;2023-04-30T09:47:19;101840.19;;;21.43
29701;BMP280;57917;51.380;-0.176;2023-04-30T09:53:08;101825.31;;;20.91
29701;BMP280;57917;51.380;-0.176;2023-04-30T09:59:01;101836.09;;;21.37
29701;BMP280;57917;51.380;-0.176;2023-04-30T10:04:54;101829.50;;;21.55
29701;BMP280;57917;51.380;-0.176;2023-04-30T10:11:05;101822.25;;;21.10
29701;BMP280;57917;51.380;-0.176;2023-04-30T10:18:17;101829.16;;;20.65
29701;BMP280;57917;51.380;-0.176;2023-04-30T10:25:04;101835.75;;;20.93
29701;BMP280;57917;51.380;-0.176;2023-04-30T10:30:51;101830.72;;;20.83
29701;BMP280;57917;51.380;-0.176;2023-04-30T10:36:45;101814.13;;;20.72
29701;BMP280;57917;51.380;-0.176;2023-04-30T10:42:44;101805.41;;;20.84
29701;BMP280;57917;51.380;-0.176;2023-04-30T10:48:33;101788.78;;;20.56
29701;BMP280;57917;51.380;-0.176;2023-04-30T10:54:34;101790.25;;;20.28
29701;BMP280;57917;51.380;-0.176;2023-04-30T11:00:26;101787.25;;;20.21
29701;BMP280;57917;51.380;-0.176;2023-04-30T11:06:16;101772.34;;;20.58
29701;BMP280;57917;51.380;-0.176;2023-04-30T11:12:19;101769.59;;;20.83
29701;BMP280;57917;51.380;-0.176;2023-04-30T11:18:08;101753.13;;;21.22
29701;BMP280;57917;51.380;-0.176;2023-04-30T11:24:02;101743.19;;;21.14
29701;BMP280;57917;51.380;-0.176;2023-04-30T11:29:52;101740.81;;;21.13
29701;BMP280;57917;51.380;-0.176;2023-04-30T11:35:39;101726.81;;;20.90
29701;BMP280;57917;51.380;-0.176;2023-04-30T11:41:27;101730.69;;;21.10
29701;BMP280;57917;51.380;-0.176;2023-04-30T11:47:14;101728.31;;;21.37
29701;BMP280;57917;51.380;-0.176;2023-04-30T11:53:01;101718.25;;;21.26
29701;BMP280;57917;51.380;-0.176;2023-04-30T11:58:50;101723.31;;;21.27
29701;BMP280;57917;51.380;-0.176;2023-04-30T12:04:37;101720.47;;;21.53
29701;BMP280;57917;51.380;-0.176;2023-04-30T12:10:24;101721.22;;;21.33
29701;BMP280;57917;51.380;-0.176;2023-04-30T12:16:14;101709.19;;;21.01
29701;BMP280;57917;51.380;-0.176;2023-04-30T12:22:01;101703.91;;;21.42
29701;BMP280;57917;51.380;-0.176;2023-04-30T12:27:50;101705.69;;;21.38
29701;BMP280;57917;51.380;-0.176;2023-04-30T12:33:38;101708.63;;;21.45
29701;BMP280;57917;51.380;-0.176;2023-04-30T12:39:24;101702.03;;;21.14
29701;BMP280;57917;51.380;-0.176;2023-04-30T12:51:41;101682.41;;;20.76
29701;BMP280;57917;51.380;-0.176;2023-04-30T12:57:28;101695.06;;;21.33
29701;BMP280;57917;51.380;-0.176;2023-04-30T13:03:18;101685.22;;;20.79
29701;BMP280;57917;51.380;-0.176;2023-04-30T13:09:06;101693.00;;;20.72
29701;BMP280;57917;51.380;-0.176;2023-04-30T13:14:54;101682.78;;;20.57
29701;BMP280;57917;51.380;-0.176;2023-04-30T13:20:43;101675.09;;;20.76
29701;BMP280;57917;51.380;-0.176;2023-04-30T13:26:30;101678.25;;;20.87
29701;BMP280;57917;51.380;-0.176;2023-04-30T13:32:17;101670.56;;;21.26
29701;BMP280;57917;51.380;-0.176;2023-04-30T13:38:07;101656.50;;;20.54
29701;BMP280;57917;51.380;-0.176;2023-04-30T13:43:54;101660.31;;;20.53
29701;BMP280;57917;51.380;-0.176;2023-04-30T13:49:41;101665.03;;;20.56
29701;BMP280;57917;51.380;-0.176;2023-04-30T13:55:28;101655.09;;;20.48
29701;BMP280;57917;51.380;-0.176;2023-04-30T14:01:15;101637.13;;;20.69
29701;BMP280;57917;51.380;-0.176;2023-04-30T14:07:02;101646.38;;;20.89
29701;BMP280;57917;51.380;-0.176;2023-04-30T14:12:50;101638.06;;;20.73
29701;BMP280;57917;51.380;-0.176;2023-04-30T14:18:37;101632.38;;;20.66
29701;BMP280;57917;51.380;-0.176;2023-04-30T14:24:24;101633.47;;;20.36
29701;BMP280;57917;51.380;-0.176;2023-04-30T14:30:15;101629.31;;;20.56
29701;BMP280;57917;51.380;-0.176;2023-04-30T14:36:08;101613.19;;;20.47
29701;BMP280;57917;51.380;-0.176;2023-04-30T14:42:24;101616.53;;;20.27
29701;BMP280;57917;51.380;-0.176;2023-04-30T14:48:15;101616.97;;;20.46
29701;BMP280;57917;51.380;-0.176;2023-04-30T14:54:03;101615.28;;;20.25
29701;BMP280;57917;51.380;-0.176;2023-04-30T14:59:52;101616.25;;;20.29
29701;BMP280;57917;51.380;-0.176;2023-04-30T15:05:41;101603.22;;;20.39
29701;BMP280;57917;51.380;-0.176;2023-04-30T15:11:30;101593.97;;;20.11
29701;BMP280;57917;51.380;-0.176;2023-04-30T15:17:21;101588.00;;;20.14
29701;BMP280;57917;51.380;-0.176;2023-04-30T15:23:08;101582.28;;;19.99
29701;BMP280;57917;51.380;-0.176;2023-04-30T15:28:55;101576.34;;;19.93
29701;BMP280;57917;51.380;-0.176;2023-04-30T15:34:42;101579.31;;;19.92
29701;BMP280;57917;51.380;-0.176;2023-04-30T15:40:34;101567.31;;;19.89
29701;BMP280;57917;51.380;-0.176;2023-04-30T15:46:21;101560.84;;;19.73
29701;BMP280;57917;51.380;-0.176;2023-04-30T15:52:08;101548.38;;;19.60
29701;BMP280;57917;51.380;-0.176;2023-04-30T15:57:56;101545.69;;;19.43
29701;BMP280;57917;51.380;-0.176;2023-04-30T16:03:43;101549.66;;;19.46
29701;BMP280;57917;51.380;-0.176;2023-04-30T16:09:31;101544.59;;;19.53
29701;BMP280;57917;51.380;-0.176;2023-04-30T16:15:25;101541.44;;;19.51
29701;BMP280;57917;51.380;-0.176;2023-04-30T16:21:16;101537.50;;;19.23
29701;BMP280;57917;51.380;-0.176;2023-04-30T16:27:03;101544.88;;;19.00
29701;BMP280;57917;51.380;-0.176;2023-04-30T16:32:52;101545.63;;;18.92
29701;BMP280;57917;51.380;-0.176;2023-04-30T16:38:38;101540.72;;;18.86
29701;BMP280;57917;51.380;-0.176;2023-04-30T16:44:25;101537.97;;;18.60
29701;BMP280;57917;51.380;-0.176;2023-04-30T16:50:12;101538.78;;;18.60
29701;BMP280;57917;51.380;-0.176;2023-04-30T16:55:59;101542.19;;;18.52
29701;BMP280;57917;51.380;-0.176;2023-04-30T17:01:46;101543.63;;;18.50
29701;BMP280;57917;51.380;-0.176;2023-04-30T17:07:33;101553.63;;;18.36
29701;BMP280;57917;51.380;-0.176;2023-04-30T17:13:21;101549.47;;;18.52
29701;BMP280;57917;51.380;-0.176;2023-04-30T17:19:08;101553.31;;;18.29
29701;BMP280;57917;51.380;-0.176;2023-04-30T17:24:55;101539.00;;;18.11
29701;BMP280;57917;51.380;-0.176;2023-04-30T17:30:45;101531.31;;;18.18
29701;BMP280;57917;51.380;-0.176;2023-04-30T17:36:35;101527.25;;;17.99
29701;BMP280;57917;51.380;-0.176;2023-04-30T17:42:24;101528.91;;;17.86
29701;BMP280;57917;51.380;-0.176;2023-04-30T17:48:12;101524.03;;;17.66
29701;BMP280;57917;51.380;-0.176;2023-04-30T17:54:05;101532.38;;;17.65
29701;BMP280;57917;51.380;-0.176;2023-04-30T17:59:53;101534.75;;;17.44
29701;BMP280;57917;51.380;-0.176;2023-04-30T18:05:41;101535.81;;;17.43
29701;BMP280;57917;51.380;-0.176;2023-04-30T18:11:29;101532.31;;;17.21
29701;BMP280;57917;51.380;-0.176;2023-04-30T18:17:17;101534.75;;;17.31
29701;BMP280;57917;51.380;-0.176;2023-04-30T18:23:04;101529.16;;;17.05
29701;BMP280;57917;51.380;-0.176;2023-04-30T18:28:55;101517.78;;;17.00
29701;BMP280;57917;51.380;-0.176;2023-04-30T18:34:44;101523.81;;;16.92
29701;BMP280;57917;51.380;-0.176;2023-04-30T18:40:31;101518.66;;;16.82
29701;BMP280;57917;51.380;-0.176;2023-04-30T18:46:18;101520.25;;;16.83
29701;BMP280;57917;51.380;-0.176;2023-04-30T18:52:07;101512.34;;;16.78
29701;BMP280;57917;51.380;-0.176;2023-04-30T18:57:53;101526.09;;;16.85
29701;BMP280;57917;51.380;-0.176;2023-04-30T19:03:42;101522.06;;;16.74
29701;BMP280;57917;51.380;-0.176;2023-04-30T19:09:33;101535.31;;;16.79
29701;BMP280;57917;51.380;-0.176;2023-04-30T19:15:22;101530.84;;;16.74
29701;BMP280;57917;51.380;-0.176;2023-04-30T19:21:14;101522.44;;;16.67
29701;BMP280;57917;51.380;-0.176;2023-04-30T19:27:05;101520.66;;;16.63
29701;BMP280;57917;51.380;-0.176;2023-04-30T19:32:54;101525.63;;;16.69
29701;BMP280;57917;51.380;-0.176;2023-04-30T19:38:42;101525.72;;;16.51
29701;BMP280;57917;51.380;-0.176;2023-04-30T19:44:29;101527.84;;;16.35
29701;BMP280;57917;51.380;-0.176;2023-04-30T19:50:19;101543.25;;;16.24
29701;BMP280;57917;51.380;-0.176;2023-04-30T19:56:07;101543.47;;;15.96
29701;BMP280;57917;51.380;-0.176;2023-04-30T20:01:57;101551.59;;;16.04
29701;BMP280;57917;51.380;-0.176;2023-04-30T20:07:53;101556.00;;;15.95
29701;BMP280;57917;51.380;-0.176;2023-04-30T20:13:43;101564.47;;;16.02
29701;BMP280;57917;51.380;-0.176;2023-04-30T20:19:33;101552.06;;;15.93
29701;BMP280;57917;51.380;-0.176;2023-04-30T20:25:24;101547.09;;;15.86
29701;BMP280;57917;51.380;-0.176;2023-04-30T20:31:15;101556.69;;;15.87
29701;BMP280;57917;51.380;-0.176;2023-04-30T20:37:05;101560.47;;;16.00
29701;BMP280;57917;51.380;-0.176;2023-04-30T20:42:52;101550.53;;;15.87
29701;BMP280;57917;51.380;-0.176;2023-04-30T20:48:40;101551.69;;;15.81
29701;BMP280;57917;51.380;-0.176;2023-04-30T20:54:28;101545.13;;;15.73
29701;BMP280;57917;51.380;-0.176;2023-04-30T21:00:15;101553.81;;;15.65
29701;BMP280;57917;51.380;-0.176;2023-04-30T21:06:05;101554.22;;;15.54
29701;BMP280;57917;51.380;-0.176;2023-04-30T21:11:56;101563.03;;;15.54
29701;BMP280;57917;51.380;-0.176;2023-04-30T21:17:45;101550.84;;;15.48
29701;BMP280;57917;51.380;-0.176;2023-04-30T21:23:41;101547.34;;;15.48
29701;BMP280;57917;51.380;-0.176;2023-04-30T21:29:35;101544.31;;;15.36
29701;BMP280;57917;51.380;-0.176;2023-04-30T21:35:29;101535.69;;;15.44
29701;BMP280;57917;51.380;-0.176;2023-04-30T21:41:19;101543.03;;;15.33
29701;BMP280;57917;51.380;-0.176;2023-04-30T21:47:09;101534.22;;;15.33
29701;BMP280;57917;51.380;-0.176;2023-04-30T21:52:57;101533.34;;;15.37
29701;BMP280;57917;51.380;-0.176;2023-04-30T21:58:44;101523.97;;;15.21
29701;BMP280;57917;51.380;-0.176;2023-04-30T22:04:31;101526.69;;;15.16
29701;BMP280;57917;51.380;-0.176;2023-04-30T22:10:24;101521.06;;;15.18
29701;BMP280;57917;51.380;-0.176;2023-04-30T22:16:16;101519.84;;;15.10
29701;BMP280;57917;51.380;-0.176;2023-04-30T22:22:03;101522.06;;;14.80
29701;BMP280;57917;51.380;-0.176;2023-04-30T22:27:50;101512.75;;;14.77
29701;BMP280;57917;51.380;-0.176;2023-04-30T22:33:39;101512.19;;;14.80
29701;BMP280;57917;51.380;-0.176;2023-04-30T22:39:26;101514.19;;;14.70
29701;BMP280;57917;51.380;-0.176;2023-04-30T22:45:18;101518.91;;;14.73
29701;BMP280;57917;51.380;-0.176;2023-04-30T22:51:12;101510.19;;;14.67
29701;BMP280;57917;51.380;-0.176;2023-04-30T22:57:02;101512.34;;;14.65
29701;BMP280;57917;51.380;-0.176;2023-04-30T23:02:49;101510.75;;;14.64
29701;BMP280;57917;51.380;-0.176;2023-04-30T23:08:39;101511.31;;;14.61
29701;BMP280;57917;51.380;-0.176;2023-04-30T23:14:27;101509.28;;;14.53
29701;BMP280;57917;51.380;-0.176;2023-04-30T23:20:15;101516.69;;;14.56
29701;BMP280;57917;51.380;-0.176;2023-04-30T23:26:04;101511.88;;;14.58
29701;BMP280;57917;51.380;-0.176;2023-04-30T23:31:53;101508.22;;;14.49
29701;BMP280;57917;51.380;-0.176;2023-04-30T23:37:41;101502.53;;;14.32
29701;BMP280;57917;51.380;-0.176;2023-04-30T23:43:28;101508.22;;;14.20
29701;BMP280;57917;51.380;-0.176;2023-04-30T23:49:16;101511.09;;;14.29
29701;BMP280;57917;51.380;-0.176;2023-04-30T23:55:04;101499.44;;;14.20
